createdAt,value
2019-03-21T00:01:52.951Z,3.00
2019-03-21T00:04:21.420Z,3.00
2019-03-21T00:06:49.887Z,3.10
2019-03-21T00:09:19.538Z,3.10
2019-03-21T00:12:06.367Z,3.20
2019-03-21T00:14:50.007Z,3.30
2019-03-21T00:17:34.043Z,3.20
2019-03-21T00:20:02.734Z,3.20
2019-03-21T00:22:31.289Z,3.00
2019-03-21T00:24:59.751Z,2.90
2019-03-21T00:27:28.735Z,2.80
2019-03-21T00:29:57.191Z,3.00
2019-03-21T00:32:25.727Z,3.00
2019-03-21T00:34:54.216Z,3.00
2019-03-21T00:37:22.680Z,3.00
2019-03-21T00:39:51.167Z,2.90
2019-03-21T00:42:19.799Z,2.90
2019-03-21T00:44:48.264Z,2.80
2019-03-21T00:47:16.744Z,2.90
2019-03-21T00:49:45.231Z,2.80
2019-03-21T00:52:13.699Z,2.80
2019-03-21T00:54:42.170Z,2.80
2019-03-21T00:57:10.663Z,2.70
2019-03-21T00:59:39.127Z,2.70
2019-03-21T01:02:07.592Z,2.70
2019-03-21T01:04:36.082Z,2.60
2019-03-21T01:07:05.459Z,2.60
2019-03-21T01:09:34.061Z,2.60
2019-03-21T01:12:02.692Z,2.60
2019-03-21T01:14:31.159Z,2.60
2019-03-21T01:16:59.691Z,2.60
2019-03-21T01:19:28.183Z,2.60
2019-03-21T01:21:56.648Z,2.60
2019-03-21T01:24:25.120Z,2.60
2019-03-21T01:26:53.623Z,2.50
2019-03-21T01:29:23.256Z,2.60
2019-03-21T01:31:50.931Z,2.50
2019-03-21T01:34:19.422Z,2.60
2019-03-21T01:36:47.883Z,2.70
2019-03-21T01:39:16.343Z,2.70
2019-03-21T01:41:44.874Z,2.70
2019-03-21T01:44:13.331Z,2.60
2019-03-21T01:46:41.798Z,2.60
2019-03-21T01:49:10.294Z,2.60
2019-03-21T01:51:38.759Z,2.60
2019-03-21T01:54:07.303Z,2.60
2019-03-21T01:56:35.820Z,2.50
2019-03-21T01:59:04.527Z,2.60
2019-03-21T02:01:33.173Z,2.50
2019-03-21T02:04:01.740Z,2.50
2019-03-21T02:06:30.196Z,2.50
2019-03-21T02:08:58.659Z,2.50
2019-03-21T02:11:27.220Z,2.40
2019-03-21T02:13:55.679Z,2.40
2019-03-21T02:16:24.147Z,2.40
2019-03-21T02:18:52.636Z,2.40
2019-03-21T02:21:21.165Z,2.40
2019-03-21T02:23:49.620Z,2.30
2019-03-21T02:26:18.109Z,2.30
2019-03-21T02:28:46.565Z,2.30
2019-03-21T02:31:15.518Z,2.30
2019-03-21T02:33:45.275Z,2.40
2019-03-21T02:36:13.524Z,2.50
2019-03-21T02:38:42.151Z,2.40
2019-03-21T02:41:13.427Z,2.40
2019-03-21T02:43:41.953Z,2.40
2019-03-21T02:46:10.482Z,2.30
2019-03-21T02:48:38.977Z,2.40
2019-03-21T02:51:08.280Z,2.50
2019-03-21T02:53:36.860Z,2.50
2019-03-21T02:56:09.059Z,2.50
2019-03-21T02:58:37.591Z,2.50
2019-03-21T03:01:06.054Z,2.50
2019-03-21T03:03:34.619Z,2.40
2019-03-21T03:06:03.153Z,2.30
2019-03-21T03:08:31.741Z,2.30
2019-03-21T03:11:03.345Z,2.30
2019-03-21T03:13:31.976Z,2.30
2019-03-21T03:16:00.433Z,2.40
2019-03-21T03:18:28.916Z,2.30
2019-03-21T03:20:57.523Z,2.30
2019-03-21T03:23:25.994Z,2.30
2019-03-21T03:25:54.492Z,2.30
2019-03-21T03:28:32.072Z,2.30
2019-03-21T03:31:00.668Z,2.40
2019-03-21T03:33:29.917Z,2.40
2019-03-21T03:35:58.457Z,2.40
2019-03-21T03:38:27.065Z,2.30
2019-03-21T03:41:02.791Z,2.30
2019-03-21T03:43:31.279Z,2.30
2019-03-21T03:45:59.818Z,2.30
2019-03-21T03:48:28.789Z,2.30
2019-03-21T03:50:57.355Z,2.30
2019-03-21T03:53:25.894Z,2.30
2019-03-21T03:55:54.424Z,2.20
2019-03-21T03:58:27.703Z,2.30
2019-03-21T04:00:57.089Z,2.20
2019-03-21T04:03:27.367Z,2.20
2019-03-21T04:05:56.115Z,2.30
2019-03-21T04:08:24.579Z,2.30
2019-03-21T04:10:54.549Z,2.20
2019-03-21T04:13:23.127Z,2.10
2019-03-21T04:15:53.804Z,2.20
2019-03-21T04:18:23.882Z,2.20
2019-03-21T04:21:10.223Z,2.20
2019-03-21T04:23:38.761Z,2.20
2019-03-21T04:26:28.539Z,2.20
2019-03-21T04:28:57.000Z,2.20
2019-03-21T04:31:25.458Z,2.20
2019-03-21T04:33:57.092Z,2.20
2019-03-21T04:36:25.748Z,2.20
2019-03-21T04:38:54.301Z,2.20
2019-03-21T04:41:22.869Z,2.10
2019-03-21T04:43:51.395Z,2.00
2019-03-21T04:46:19.929Z,2.00
2019-03-21T04:48:48.420Z,2.00
2019-03-21T04:51:16.885Z,2.00
2019-03-21T04:53:45.354Z,2.10
2019-03-21T04:56:13.932Z,2.10
2019-03-21T04:58:42.455Z,2.10
2019-03-21T05:01:10.907Z,2.10
2019-03-21T05:03:39.390Z,2.10
2019-03-21T05:06:07.856Z,2.20
2019-03-21T05:08:36.323Z,2.20
2019-03-21T05:11:04.815Z,2.30
2019-03-21T05:13:33.271Z,2.30
2019-03-21T05:16:01.859Z,2.40
2019-03-21T05:18:33.838Z,2.40
2019-03-21T05:21:04.359Z,2.40
2019-03-21T05:23:32.836Z,2.40
2019-03-21T05:26:03.842Z,2.60
2019-03-21T05:28:31.507Z,2.60
2019-03-21T05:31:12.326Z,2.70
2019-03-21T05:33:40.847Z,2.70
2019-03-21T05:36:09.311Z,2.80
2019-03-21T05:38:38.034Z,2.90
2019-03-21T05:41:06.495Z,2.90
2019-03-21T05:43:43.939Z,3.00
2019-03-21T05:46:12.467Z,3.00
2019-03-21T05:48:40.919Z,3.00
2019-03-21T05:51:09.415Z,3.10
2019-03-21T05:53:37.875Z,3.10
2019-03-21T05:56:06.575Z,3.20
2019-03-21T05:58:35.143Z,3.30
2019-03-21T06:01:09.472Z,3.40
2019-03-21T06:03:51.494Z,3.40
2019-03-21T06:06:25.613Z,3.50
2019-03-21T06:08:54.144Z,3.50
2019-03-21T06:11:22.860Z,3.60
2019-03-21T06:13:51.394Z,3.70
2019-03-21T06:16:19.847Z,3.90
2019-03-21T06:18:54.011Z,3.90
2019-03-21T06:21:40.476Z,3.90
2019-03-21T06:24:26.995Z,3.90
2019-03-21T06:27:27.047Z,3.90
2019-03-21T06:29:55.979Z,4.10
2019-03-21T06:32:25.700Z,4.10
2019-03-21T06:34:53.665Z,4.20
2019-03-21T06:37:22.240Z,4.20
2019-03-21T06:39:50.996Z,4.20
2019-03-21T06:42:19.531Z,4.20
2019-03-21T06:44:48.037Z,4.20
2019-03-21T06:47:16.578Z,4.30
2019-03-21T06:49:46.587Z,4.30
2019-03-21T06:52:15.307Z,4.40
2019-03-21T06:54:43.785Z,4.50
2019-03-21T06:57:12.336Z,4.40
2019-03-21T06:59:40.835Z,4.40
2019-03-21T07:02:09.369Z,4.40
2019-03-21T07:04:37.825Z,4.40
2019-03-21T07:07:08.510Z,4.40
2019-03-21T07:09:36.596Z,4.50
2019-03-21T07:12:05.272Z,4.60
2019-03-21T07:14:33.763Z,4.70
2019-03-21T07:17:02.252Z,4.60
2019-03-21T07:19:30.779Z,4.60
2019-03-21T07:21:59.295Z,4.80
2019-03-21T07:24:27.831Z,4.80
2019-03-21T07:26:56.356Z,4.80
2019-03-21T07:29:24.928Z,4.90
2019-03-21T07:31:53.473Z,4.90
2019-03-21T07:34:22.008Z,4.90
2019-03-21T07:36:50.587Z,4.80
2019-03-21T07:39:19.120Z,4.90
2019-03-21T07:41:47.832Z,4.90
2019-03-21T07:44:16.379Z,5.00
2019-03-21T07:46:44.860Z,5.00
2019-03-21T07:49:13.319Z,5.20
2019-03-21T07:51:41.896Z,5.20
2019-03-21T07:54:10.374Z,5.20
2019-03-21T07:56:38.923Z,5.30
2019-03-21T07:59:07.468Z,5.30
2019-03-21T08:01:35.997Z,5.30
2019-03-21T08:04:04.639Z,5.40
2019-03-21T08:06:33.211Z,5.30
2019-03-21T08:09:01.687Z,5.30
2019-03-21T08:11:30.147Z,5.40
2019-03-21T08:13:58.802Z,5.50
2019-03-21T08:16:30.522Z,5.60
2019-03-21T08:18:58.996Z,5.50
2019-03-21T08:21:27.491Z,5.60
2019-03-21T08:23:56.047Z,5.60
2019-03-21T08:26:24.680Z,5.70
2019-03-21T08:28:53.224Z,5.60
2019-03-21T08:31:21.758Z,5.70
2019-03-21T08:33:50.298Z,5.70
2019-03-21T08:36:18.800Z,5.90
2019-03-21T08:38:48.720Z,6.00
2019-03-21T08:41:17.273Z,6.00
2019-03-21T08:43:46.720Z,6.00
2019-03-21T08:46:15.251Z,6.00
2019-03-21T08:48:43.889Z,6.00
2019-03-21T08:51:14.235Z,6.00
2019-03-21T08:53:42.791Z,5.90
2019-03-21T08:56:11.269Z,5.90
2019-03-21T08:58:39.835Z,5.90
2019-03-21T09:01:08.364Z,6.00
2019-03-21T09:03:36.829Z,6.00
2019-03-21T09:06:05.456Z,6.10
2019-03-21T09:08:33.997Z,6.10
2019-03-21T09:11:02.520Z,6.10
2019-03-21T09:13:31.009Z,6.00
2019-03-21T09:15:59.547Z,6.00
2019-03-21T09:18:28.083Z,6.00
2019-03-21T09:20:57.456Z,6.10
2019-03-21T09:23:25.993Z,6.20
2019-03-21T09:25:54.456Z,6.30
2019-03-21T09:28:22.965Z,6.30
2019-03-21T09:30:51.499Z,6.40
2019-03-21T09:33:20.221Z,6.50
2019-03-21T09:35:49.992Z,6.70
2019-03-21T09:38:17.667Z,6.80
2019-03-21T09:40:46.143Z,6.90
2019-03-21T09:43:14.655Z,6.70
2019-03-21T09:45:43.405Z,6.70
2019-03-21T09:48:11.864Z,6.90
2019-03-21T09:50:40.372Z,7.10
2019-03-21T09:53:08.839Z,7.00
2019-03-21T09:55:37.295Z,7.10
2019-03-21T09:58:05.811Z,7.10
2019-03-21T10:00:36.094Z,7.20
2019-03-21T10:03:05.576Z,7.30
2019-03-21T10:05:34.162Z,7.30
2019-03-21T10:08:03.081Z,7.30
2019-03-21T10:10:34.050Z,7.40
2019-03-21T10:13:02.605Z,7.40
2019-03-21T10:15:31.153Z,7.60
2019-03-21T10:17:59.969Z,7.80
2019-03-21T10:20:28.532Z,8.00
2019-03-21T10:22:57.081Z,8.10
2019-03-21T10:25:26.823Z,8.00
2019-03-21T10:27:55.605Z,7.90
2019-03-21T10:30:35.224Z,7.70
2019-03-21T10:33:03.907Z,7.70
2019-03-21T10:35:32.817Z,7.80
2019-03-21T10:38:01.522Z,7.80
2019-03-21T10:40:30.084Z,7.80
2019-03-21T10:42:58.953Z,8.00
2019-03-21T10:45:27.479Z,8.20
2019-03-21T10:47:56.142Z,8.20
2019-03-21T10:50:35.880Z,8.40
2019-03-21T10:53:03.964Z,8.40
2019-03-21T10:55:32.443Z,8.40
2019-03-21T10:58:00.992Z,8.40
2019-03-21T11:00:29.630Z,8.10
2019-03-21T11:02:58.161Z,8.20
2019-03-21T11:05:26.695Z,8.30
2019-03-21T11:07:55.184Z,8.40
2019-03-21T11:10:23.674Z,8.10
2019-03-21T11:12:52.345Z,8.20
2019-03-21T11:15:20.839Z,8.40
2019-03-21T11:17:49.949Z,8.70
2019-03-21T11:20:38.510Z,8.60
2019-03-21T11:23:07.681Z,8.40
2019-03-21T11:25:36.359Z,8.50
2019-03-21T11:28:05.092Z,8.30
2019-03-21T11:30:35.783Z,8.40
2019-03-21T11:33:04.788Z,8.40
2019-03-21T11:35:33.462Z,8.50
2019-03-21T11:38:01.998Z,8.50
2019-03-21T11:40:30.545Z,8.60
2019-03-21T11:42:59.560Z,8.70
2019-03-21T11:45:28.109Z,8.60
2019-03-21T11:48:00.479Z,8.50
2019-03-21T11:50:29.066Z,8.50
2019-03-21T11:52:57.599Z,8.40
2019-03-21T11:55:26.236Z,8.60
2019-03-21T11:57:54.919Z,8.80
2019-03-21T12:00:23.535Z,8.90
2019-03-21T12:02:52.134Z,9.00
2019-03-21T12:05:20.709Z,9.00
2019-03-21T12:07:49.235Z,8.60
2019-03-21T12:10:18.040Z,8.80
2019-03-21T12:12:46.668Z,8.80
2019-03-21T12:15:15.265Z,9.00
2019-03-21T12:17:43.800Z,9.00
2019-03-21T12:20:26.929Z,9.10
2019-03-21T12:22:56.637Z,9.20
2019-03-21T12:25:29.615Z,9.10
2019-03-21T12:27:58.275Z,9.00
2019-03-21T12:30:35.097Z,9.10
2019-03-21T12:33:03.704Z,9.10
2019-03-21T12:38:08.377Z,9.20
2019-03-21T12:40:36.987Z,9.30
2019-03-21T12:43:07.303Z,9.30
2019-03-21T12:45:35.869Z,9.40
2019-03-21T12:48:04.560Z,9.50
2019-03-21T12:50:33.030Z,9.60
2019-03-21T12:53:01.868Z,9.40
2019-03-21T12:55:30.417Z,9.30
2019-03-21T12:57:58.956Z,9.40
2019-03-21T13:00:32.835Z,9.40
2019-03-21T13:03:01.397Z,9.50
2019-03-21T13:05:30.970Z,9.60
2019-03-21T13:07:59.458Z,9.60
2019-03-21T13:10:27.991Z,9.50
2019-03-21T13:12:56.457Z,9.50
2019-03-21T13:15:29.899Z,9.60
2019-03-21T13:17:55.136Z,9.60
2019-03-21T13:20:23.605Z,9.50
2019-03-21T13:22:53.376Z,9.70
2019-03-21T13:25:22.165Z,9.90
2019-03-21T13:27:55.518Z,9.90
2019-03-21T13:30:24.815Z,9.90
2019-03-21T13:32:53.332Z,9.90
2019-03-21T13:35:32.122Z,10.00
2019-03-21T13:37:53.992Z,9.90
2019-03-21T13:40:22.357Z,9.80
2019-03-21T13:42:50.902Z,9.60
2019-03-21T13:45:19.465Z,9.80
2019-03-21T13:47:47.973Z,9.90
2019-03-21T13:50:16.602Z,9.90
2019-03-21T13:52:45.208Z,9.80
2019-03-21T13:55:14.136Z,9.60
2019-03-21T13:57:42.668Z,9.80
2019-03-21T14:00:17.327Z,9.80
2019-03-21T14:02:45.780Z,9.90
2019-03-21T14:05:14.983Z,9.90
2019-03-21T14:07:43.567Z,9.70
2019-03-21T14:10:12.198Z,9.70
2019-03-21T14:12:40.761Z,9.90
2019-03-21T14:15:12.419Z,9.90
2019-03-21T14:17:40.930Z,10.00
2019-03-21T14:20:11.008Z,10.20
2019-03-21T14:22:39.593Z,10.10
2019-03-21T14:25:08.264Z,10.20
2019-03-21T14:27:36.919Z,10.20
2019-03-21T14:30:11.262Z,10.40
2019-03-21T14:32:39.833Z,10.60
2019-03-21T14:35:08.797Z,10.50
2019-03-21T14:37:46.994Z,10.60
2019-03-21T14:40:15.811Z,10.40
2019-03-21T14:42:44.753Z,10.40
2019-03-21T14:45:15.396Z,10.70
2019-03-21T14:47:44.299Z,11.00
2019-03-21T14:50:16.820Z,11.20
2019-03-21T14:52:45.460Z,11.50
2019-03-21T14:55:15.598Z,12.00
2019-03-21T14:57:44.962Z,12.20
2019-03-21T15:00:15.989Z,13.70
2019-03-21T15:02:44.535Z,14.50
2019-03-21T15:05:14.155Z,15.10
2019-03-21T15:07:42.731Z,16.10
2019-03-21T15:10:17.011Z,16.40
2019-03-21T15:12:45.565Z,16.30
2019-03-21T15:15:15.264Z,16.80
2019-03-21T15:17:43.983Z,16.80
2019-03-21T15:20:15.584Z,16.80
2019-03-21T15:22:44.143Z,17.60
2019-03-21T15:25:13.503Z,17.50
2019-03-21T15:27:42.105Z,16.60
2019-03-21T15:30:13.621Z,16.90
2019-03-21T15:32:42.301Z,16.60
2019-03-21T15:35:13.707Z,15.30
2019-03-21T15:37:42.174Z,14.70
2019-03-21T15:40:15.678Z,13.60
2019-03-21T15:42:44.479Z,13.30
2019-03-21T15:45:22.760Z,14.00
2019-03-21T15:47:47.819Z,14.60
2019-03-21T15:50:30.584Z,14.50
2019-03-21T15:52:59.349Z,14.80
2019-03-21T15:55:28.032Z,14.30
2019-03-21T15:57:56.620Z,13.70
2019-03-21T16:00:34.312Z,12.90
2019-03-21T16:03:04.036Z,12.90
2019-03-21T16:05:31.711Z,12.60
2019-03-21T16:08:00.183Z,11.90
2019-03-21T16:10:28.962Z,11.90
2019-03-21T16:12:57.419Z,11.80
2019-03-21T16:15:26.349Z,11.60
2019-03-21T16:17:54.983Z,11.60
2019-03-21T16:20:23.605Z,11.50
2019-03-21T16:22:52.248Z,11.40
2019-03-21T16:25:20.820Z,11.30
2019-03-21T16:27:49.962Z,11.30
2019-03-21T16:30:21.305Z,11.30
2019-03-21T16:32:49.928Z,11.20
2019-03-21T16:35:18.582Z,11.30
2019-03-21T16:37:48.220Z,11.30
2019-03-21T16:40:17.161Z,11.30
2019-03-21T16:42:45.715Z,11.20
2019-03-21T16:45:16.068Z,11.20
2019-03-21T16:47:44.832Z,11.10
2019-03-21T16:50:14.611Z,10.90
2019-03-21T16:52:43.217Z,10.70
2019-03-21T16:55:13.977Z,10.40
2019-03-21T16:57:42.952Z,10.30
2019-03-21T17:00:14.383Z,10.20
2019-03-21T17:02:43.003Z,10.30
2019-03-21T17:05:12.312Z,10.30
2019-03-21T17:07:40.871Z,10.30
2019-03-21T17:10:11.769Z,10.30
2019-03-21T17:12:40.839Z,10.30
2019-03-21T17:17:45.431Z,10.00
2019-03-21T17:20:14.598Z,9.90
2019-03-21T17:22:43.145Z,9.90
2019-03-21T17:25:12.430Z,9.80
2019-03-21T17:27:40.899Z,9.80
2019-03-21T17:30:12.283Z,9.70
2019-03-21T17:32:40.883Z,9.70
2019-03-21T17:35:09.591Z,9.70
2019-03-21T17:37:38.861Z,9.60
2019-03-21T17:40:10.115Z,9.50
2019-03-21T17:42:38.721Z,9.20
2019-03-21T17:45:10.619Z,9.20
2019-03-21T17:47:39.199Z,9.10
2019-03-21T17:50:08.510Z,9.10
2019-03-21T17:52:36.971Z,9.00
2019-03-21T17:55:07.176Z,8.80
2019-03-21T17:57:35.720Z,8.50
2019-03-21T18:00:07.329Z,8.40
2019-03-21T18:02:35.896Z,8.40
2019-03-21T18:05:07.239Z,8.30
2019-03-21T18:07:35.692Z,8.40
2019-03-21T18:10:06.914Z,8.30
2019-03-21T18:12:35.516Z,8.40
2019-03-21T18:15:06.835Z,8.40
2019-03-21T18:17:35.331Z,8.30
2019-03-21T18:20:04.942Z,8.10
2019-03-21T18:22:33.400Z,8.10
2019-03-21T18:25:01.907Z,8.20
2019-03-21T18:27:30.372Z,8.20
2019-03-21T18:29:58.915Z,8.20
2019-03-21T18:32:27.499Z,8.10
2019-03-21T18:34:56.039Z,8.10
2019-03-21T18:37:24.595Z,8.00
2019-03-21T18:39:53.208Z,7.80
2019-03-21T18:42:21.668Z,7.80
2019-03-21T18:44:50.596Z,7.70
2019-03-21T18:47:19.208Z,7.70
2019-03-21T18:49:48.820Z,7.60
2019-03-21T18:52:17.391Z,7.60
2019-03-21T18:54:45.884Z,7.60
2019-03-21T18:57:14.363Z,7.60
2019-03-21T18:59:42.963Z,7.60
2019-03-21T19:02:11.539Z,7.60
2019-03-21T19:04:40.005Z,7.60
2019-03-21T19:07:08.649Z,7.60
2019-03-21T19:09:37.231Z,7.80
2019-03-21T19:12:05.784Z,7.80
2019-03-21T19:14:34.331Z,7.90
2019-03-21T19:17:02.829Z,8.00
2019-03-21T19:19:31.290Z,8.00
2019-03-21T19:21:59.933Z,8.10
2019-03-21T19:24:28.563Z,8.10
2019-03-21T19:26:57.093Z,8.00
2019-03-21T19:29:25.575Z,8.00
2019-03-21T19:31:54.084Z,7.90
2019-03-21T19:34:22.556Z,7.80
2019-03-21T19:36:51.058Z,7.70
2019-03-21T19:39:19.648Z,7.60
2019-03-21T19:41:49.899Z,7.50
2019-03-21T19:44:18.447Z,7.40
2019-03-21T19:46:46.944Z,7.40
2019-03-21T19:49:15.419Z,7.30
2019-03-21T19:51:43.962Z,7.20
2019-03-21T19:54:12.541Z,7.10
2019-03-21T19:56:41.174Z,7.10
2019-03-21T19:59:12.392Z,7.10
2019-03-21T20:01:43.426Z,7.20
2019-03-21T20:04:12.564Z,7.10
2019-03-21T20:06:41.539Z,6.90
2019-03-21T20:09:10.254Z,6.90
2019-03-21T20:11:38.807Z,7.00
2019-03-21T20:14:07.357Z,7.00
2019-03-21T20:16:35.911Z,7.10
2019-03-21T20:19:04.543Z,7.10
2019-03-21T20:21:33.040Z,7.10
2019-03-21T20:24:01.636Z,7.10
2019-03-21T20:26:30.243Z,7.10
2019-03-21T20:28:58.793Z,7.20
2019-03-21T20:31:27.359Z,7.30
2019-03-21T20:33:55.911Z,7.40
2019-03-21T20:36:24.385Z,7.50
2019-03-21T20:38:54.156Z,7.60
2019-03-21T20:41:22.127Z,7.70
2019-03-21T20:43:52.562Z,7.80
2019-03-21T20:46:21.152Z,7.80
2019-03-21T20:48:53.322Z,7.80
2019-03-21T20:51:23.774Z,7.70
2019-03-21T20:53:52.512Z,7.70
2019-03-21T20:56:20.984Z,7.80
2019-03-21T20:58:55.527Z,7.80
2019-03-21T21:01:24.186Z,7.70
2019-03-21T21:03:52.776Z,7.70
2019-03-21T21:06:24.576Z,7.80
2019-03-21T21:08:53.104Z,7.90
2019-03-21T21:11:22.660Z,8.10
2019-03-21T21:13:51.211Z,8.10
2019-03-21T21:16:19.730Z,8.20
2019-03-21T21:18:48.292Z,8.20
2019-03-21T21:21:16.797Z,8.20
2019-03-21T21:23:45.347Z,8.00
2019-03-21T21:26:13.893Z,7.90
2019-03-21T21:28:45.369Z,7.90
2019-03-21T21:31:14.011Z,8.00
2019-03-21T21:33:42.577Z,8.10
2019-03-21T21:36:21.612Z,8.20
2019-03-21T21:38:41.336Z,8.20
2019-03-21T21:41:09.882Z,8.20
2019-03-21T21:43:38.410Z,8.20
2019-03-21T21:46:06.917Z,8.10
2019-03-21T21:48:35.451Z,8.10
2019-03-21T21:51:03.921Z,8.10
2019-03-21T21:53:32.487Z,8.20
2019-03-21T21:56:00.952Z,8.10
2019-03-21T21:58:29.410Z,8.20
2019-03-21T22:00:57.920Z,8.30
2019-03-21T22:03:26.461Z,8.50
2019-03-21T22:05:54.991Z,8.50
2019-03-21T22:08:23.501Z,8.40
2019-03-21T22:10:52.178Z,8.30
2019-03-21T22:13:21.391Z,8.30
2019-03-21T22:15:49.900Z,8.20
2019-03-21T22:18:18.363Z,8.20
2019-03-21T22:20:46.844Z,8.20
2019-03-21T22:23:15.347Z,8.10
2019-03-21T22:25:43.884Z,8.10
2019-03-21T22:28:12.339Z,8.20
2019-03-21T22:30:40.840Z,8.20
2019-03-21T22:33:09.304Z,8.10
2019-03-21T22:35:37.763Z,8.10
2019-03-21T22:38:06.349Z,8.20
2019-03-21T22:40:35.287Z,8.30
2019-03-21T22:43:03.747Z,8.30
2019-03-21T22:45:32.323Z,8.30
2019-03-21T22:48:00.787Z,8.40
2019-03-21T22:50:29.258Z,8.60
2019-03-21T22:52:57.750Z,8.70
2019-03-21T22:55:26.216Z,8.70
2019-03-21T22:57:54.690Z,8.60
2019-03-21T23:00:25.159Z,8.50
2019-03-21T23:02:53.628Z,8.50
2019-03-21T23:05:22.503Z,8.50
2019-03-21T23:07:51.024Z,8.40
2019-03-21T23:10:19.627Z,8.40
2019-03-21T23:12:48.230Z,8.50
2019-03-21T23:15:17.936Z,8.80
2019-03-21T23:17:46.464Z,8.80
2019-03-21T23:20:15.661Z,8.70
2019-03-21T23:22:44.323Z,8.70
2019-03-21T23:25:16.264Z,8.80
2019-03-21T23:27:44.335Z,8.80
2019-03-21T23:30:18.143Z,8.70
2019-03-21T23:32:46.607Z,8.60
2019-03-21T23:35:15.219Z,8.60
2019-03-21T23:37:43.866Z,8.60
2019-03-21T23:40:15.747Z,8.60
2019-03-21T23:42:44.359Z,8.60
2019-03-21T23:45:13.912Z,8.60
2019-03-21T23:47:42.523Z,8.60
2019-03-21T23:50:13.431Z,8.50
2019-03-21T23:52:42.070Z,8.40
2019-03-21T23:55:11.367Z,8.40
2019-03-21T23:57:39.847Z,8.30
